createdAt,value
2019-01-06T00:00:35.413Z,260
2019-01-06T00:01:35.447Z,260
2019-01-06T00:02:35.515Z,260
2019-01-06T00:03:35.488Z,260.9
2019-01-06T00:04:35.499Z,260.4
2019-01-06T00:05:35.537Z,260.2
2019-01-06T00:06:35.421Z,260.1
2019-01-06T00:07:35.493Z,260
2019-01-06T00:08:35.537Z,260.9
2019-01-06T00:09:35.459Z,260.4
2019-01-06T00:10:35.580Z,260.8
2019-01-06T00:11:35.430Z,260.4
2019-01-06T00:12:35.421Z,260.2
2019-01-06T00:13:35.477Z,260.1
2019-01-06T00:14:35.476Z,260
2019-01-06T00:15:35.569Z,260
2019-01-06T00:16:35.439Z,260
2019-01-06T00:17:35.468Z,260
2019-01-06T00:18:35.465Z,260
2019-01-06T00:19:35.449Z,260
2019-01-06T00:20:35.546Z,260
2019-01-06T00:21:35.471Z,260
2019-01-06T00:22:35.452Z,260
2019-01-06T00:23:35.468Z,260
2019-01-06T00:24:35.491Z,260
2019-01-06T00:25:35.448Z,260
2019-01-06T00:26:35.447Z,260
2019-01-06T00:27:35.492Z,260
2019-01-06T00:28:35.387Z,260
2019-01-06T00:29:35.445Z,260
2019-01-06T00:30:35.435Z,260.5
2019-01-06T00:31:35.451Z,260.2
2019-01-06T00:32:35.487Z,260.1
2019-01-06T00:33:35.404Z,260
2019-01-06T00:34:35.420Z,260
2019-01-06T00:35:35.442Z,260
2019-01-06T00:36:35.418Z,260
2019-01-06T00:37:35.422Z,260
2019-01-06T00:38:35.428Z,260
2019-01-06T00:39:35.442Z,260
2019-01-06T00:40:35.431Z,260
2019-01-06T00:41:35.429Z,260
2019-01-06T00:42:35.491Z,260
2019-01-06T00:43:35.422Z,260
2019-01-06T00:44:35.364Z,260
2019-01-06T00:45:35.410Z,260
2019-01-06T00:46:35.431Z,260
2019-01-06T00:47:35.484Z,260
2019-01-06T00:48:35.464Z,260
2019-01-06T00:49:35.362Z,260
2019-01-06T00:50:35.470Z,260
2019-01-06T00:51:35.477Z,260
2019-01-06T00:52:35.427Z,260
2019-01-06T00:53:35.455Z,260
2019-01-06T00:54:35.418Z,260
2019-01-06T00:55:35.345Z,260
2019-01-06T00:56:35.499Z,260
2019-01-06T00:57:35.419Z,260
2019-01-06T00:58:35.409Z,260
2019-01-06T00:59:35.486Z,260
2019-01-06T01:00:35.390Z,260
2019-01-06T01:01:35.537Z,260
2019-01-06T01:02:35.421Z,260
2019-01-06T01:03:35.467Z,260
2019-01-06T01:04:35.405Z,260
2019-01-06T01:05:35.412Z,260
2019-01-06T01:06:35.400Z,260
2019-01-06T01:07:35.399Z,260
2019-01-06T01:08:35.428Z,260
2019-01-06T01:09:37.168Z,260
2019-01-06T01:10:35.408Z,260
2019-01-06T01:11:35.407Z,260
2019-01-06T01:12:35.475Z,260
2019-01-06T01:13:35.485Z,260
2019-01-06T01:14:35.479Z,260
2019-01-06T01:15:35.560Z,260
2019-01-06T01:16:35.401Z,260
2019-01-06T01:17:35.356Z,260
2019-01-06T01:18:35.466Z,260
2019-01-06T01:19:35.420Z,260
2019-01-06T01:20:35.416Z,260
2019-01-06T01:21:35.432Z,260
2019-01-06T01:22:35.356Z,260
2019-01-06T01:23:35.476Z,260
2019-01-06T01:24:35.419Z,260
2019-01-06T01:25:35.412Z,260
2019-01-06T01:26:35.397Z,260
2019-01-06T01:27:35.444Z,260
2019-01-06T01:28:35.403Z,260
2019-01-06T01:29:35.414Z,260
2019-01-06T01:30:35.475Z,260
2019-01-06T01:31:35.408Z,260
2019-01-06T01:32:35.420Z,260
2019-01-06T01:33:35.401Z,260
2019-01-06T01:34:35.469Z,260
2019-01-06T01:35:35.411Z,260
2019-01-06T01:36:35.415Z,260
2019-01-06T01:37:35.419Z,260
2019-01-06T01:38:35.363Z,260
2019-01-06T01:39:35.460Z,260
2019-01-06T01:40:35.392Z,260
2019-01-06T01:41:35.437Z,260
2019-01-06T01:42:35.496Z,260
2019-01-06T01:43:35.502Z,260
2019-01-06T01:44:35.335Z,260
2019-01-06T01:45:35.417Z,260
2019-01-06T01:46:35.400Z,260
2019-01-06T01:47:35.408Z,260
2019-01-06T01:48:35.463Z,260
2019-01-06T01:49:35.361Z,260
2019-01-06T01:50:35.362Z,260
2019-01-06T01:51:35.418Z,260
2019-01-06T01:52:35.456Z,260
2019-01-06T01:53:35.397Z,260
2019-01-06T01:54:35.406Z,260
2019-01-06T01:55:35.414Z,260
2019-01-06T01:56:35.388Z,260
2019-01-06T01:57:35.497Z,260
2019-01-06T01:58:35.388Z,260
2019-01-06T01:59:35.403Z,260
2019-01-06T02:00:35.393Z,260
2019-01-06T02:01:35.429Z,260
2019-01-06T02:02:35.398Z,260
2019-01-06T02:03:35.483Z,260
2019-01-06T02:04:35.412Z,260
2019-01-06T02:05:35.371Z,260.5
2019-01-06T02:06:35.430Z,260.2
2019-01-06T02:07:35.455Z,260.1
2019-01-06T02:08:35.392Z,260.1
2019-01-06T02:09:35.398Z,260
2019-01-06T02:10:35.436Z,260
2019-01-06T02:11:35.317Z,260
2019-01-06T02:12:35.470Z,260
2019-01-06T02:13:35.381Z,260
2019-01-06T02:14:35.388Z,260
2019-01-06T02:15:35.407Z,260
2019-01-06T02:16:35.398Z,260
2019-01-06T02:17:35.454Z,260
2019-01-06T02:18:35.405Z,260
2019-01-06T02:19:35.404Z,260
2019-01-06T02:20:35.421Z,260
2019-01-06T02:21:35.466Z,260
2019-01-06T02:22:35.338Z,260
2019-01-06T02:23:35.376Z,260
2019-01-06T02:24:35.394Z,260
2019-01-06T02:25:35.432Z,260
2019-01-06T02:26:35.466Z,260
2019-01-06T02:27:35.348Z,260
2019-01-06T02:28:35.423Z,260
2019-01-06T02:29:35.393Z,260
2019-01-06T02:30:35.370Z,260
2019-01-06T02:31:35.400Z,260
2019-01-06T02:32:37.498Z,260
2019-01-06T02:33:35.384Z,260
2019-01-06T02:34:35.399Z,260
2019-01-06T02:35:35.430Z,260
2019-01-06T02:36:35.438Z,260
2019-01-06T02:37:35.419Z,260
2019-01-06T02:38:35.317Z,260
2019-01-06T02:39:35.404Z,260
2019-01-06T02:40:35.460Z,260
2019-01-06T02:41:35.386Z,260
2019-01-06T02:42:35.423Z,260
2019-01-06T02:43:35.452Z,260
2019-01-06T02:44:35.320Z,260
2019-01-06T02:45:35.453Z,260
2019-01-06T02:46:35.393Z,260
2019-01-06T02:47:35.449Z,260
2019-01-06T02:48:35.382Z,260
2019-01-06T02:49:35.393Z,260
2019-01-06T02:50:35.338Z,260
2019-01-06T02:51:35.372Z,260
2019-01-06T02:52:35.438Z,260
2019-01-06T02:53:35.366Z,260
2019-01-06T02:54:35.409Z,260
2019-01-06T02:55:35.293Z,260
2019-01-06T02:56:35.452Z,260
2019-01-06T02:57:35.391Z,260
2019-01-06T02:58:35.360Z,260
2019-01-06T02:59:35.403Z,260
2019-01-06T03:00:35.392Z,260
2019-01-06T03:01:35.346Z,260
2019-01-06T03:02:35.374Z,260
2019-01-06T03:03:35.390Z,260
2019-01-06T03:04:35.371Z,260
2019-01-06T03:05:35.444Z,260
2019-01-06T03:06:35.317Z,260
2019-01-06T03:07:35.379Z,260
2019-01-06T03:08:35.378Z,260
2019-01-06T03:09:35.353Z,260
2019-01-06T03:10:35.476Z,260
2019-01-06T03:11:35.332Z,260
2019-01-06T03:12:35.432Z,260
2019-01-06T03:13:35.350Z,260
2019-01-06T03:14:35.386Z,260
2019-01-06T03:15:35.456Z,260
2019-01-06T03:16:35.310Z,260
2019-01-06T03:17:35.326Z,260
2019-01-06T03:18:35.422Z,260
2019-01-06T03:19:35.372Z,260
2019-01-06T03:20:35.386Z,260
2019-01-06T03:21:35.435Z,260
2019-01-06T03:22:35.318Z,260
2019-01-06T03:23:35.352Z,260
2019-01-06T03:24:35.384Z,260
2019-01-06T03:25:35.361Z,260
2019-01-06T03:26:35.421Z,260
2019-01-06T03:27:35.329Z,260
2019-01-06T03:28:35.366Z,260
2019-01-06T03:29:35.418Z,260
2019-01-06T03:30:35.402Z,260
2019-01-06T03:31:35.352Z,260
2019-01-06T03:32:35.449Z,260
2019-01-06T03:33:35.310Z,260
2019-01-06T03:34:35.338Z,260
2019-01-06T03:35:35.348Z,260
2019-01-06T03:36:35.420Z,260
2019-01-06T03:37:35.404Z,260
2019-01-06T03:38:35.315Z,260
2019-01-06T03:39:35.338Z,260
2019-01-06T03:40:35.474Z,260
2019-01-06T03:41:35.458Z,260
2019-01-06T03:42:35.458Z,260
2019-01-06T03:43:35.402Z,260
2019-01-06T03:44:35.312Z,260
2019-01-06T03:45:35.372Z,260
2019-01-06T03:46:35.406Z,260
2019-01-06T03:47:35.347Z,260
2019-01-06T03:48:35.366Z,260
2019-01-06T03:49:35.282Z,260
2019-01-06T03:50:35.318Z,260
2019-01-06T03:51:35.404Z,260
2019-01-06T03:52:35.331Z,260
2019-01-06T03:53:35.337Z,260
2019-01-06T03:54:35.435Z,260
2019-01-06T03:55:35.307Z,260
2019-01-06T03:56:35.352Z,260
2019-01-06T03:57:35.436Z,260
2019-01-06T03:58:35.372Z,260
2019-01-06T03:59:35.357Z,260
2019-01-06T04:00:35.285Z,260
2019-01-06T04:01:35.418Z,260
2019-01-06T04:02:35.335Z,260
2019-01-06T04:03:35.352Z,260
2019-01-06T04:04:35.371Z,260
2019-01-06T04:05:35.328Z,260
2019-01-06T04:06:35.369Z,260
2019-01-06T04:07:35.381Z,260
2019-01-06T04:08:35.342Z,260
2019-01-06T04:09:35.367Z,260
2019-01-06T04:10:35.338Z,260
2019-01-06T04:11:35.366Z,260
2019-01-06T04:12:35.342Z,260
2019-01-06T04:13:35.395Z,260
2019-01-06T04:14:35.312Z,260
2019-01-06T04:15:35.368Z,260
2019-01-06T04:16:35.358Z,260
2019-01-06T04:17:36.770Z,260
2019-01-06T04:18:35.335Z,260
2019-01-06T04:19:35.354Z,260
2019-01-06T04:20:35.339Z,260
2019-01-06T04:21:35.408Z,260
2019-01-06T04:22:35.270Z,260
2019-01-06T04:23:35.400Z,260
2019-01-06T04:24:35.348Z,260
2019-01-06T04:25:35.327Z,260
2019-01-06T04:26:35.316Z,260
2019-01-06T04:27:35.326Z,260
2019-01-06T04:28:35.285Z,260
2019-01-06T04:29:35.409Z,260
2019-01-06T04:30:35.361Z,260
2019-01-06T04:31:35.330Z,260
2019-01-06T04:32:35.438Z,260
2019-01-06T04:33:35.341Z,260
2019-01-06T04:34:35.383Z,260
2019-01-06T04:35:35.348Z,260
2019-01-06T04:36:35.329Z,260
2019-01-06T04:37:35.341Z,260
2019-01-06T04:38:35.330Z,260
2019-01-06T04:39:35.402Z,260
2019-01-06T04:40:35.340Z,260
2019-01-06T04:41:35.400Z,260
2019-01-06T04:42:35.325Z,260
2019-01-06T04:43:35.333Z,260
2019-01-06T04:44:35.273Z,260
2019-01-06T04:45:35.321Z,260
2019-01-06T04:46:35.467Z,260
2019-01-06T04:47:35.335Z,260
2019-01-06T04:48:35.348Z,260
2019-01-06T04:49:35.318Z,260
2019-01-06T04:50:36.863Z,260
2019-01-06T04:51:35.335Z,260
2019-01-06T04:52:35.365Z,260
2019-01-06T04:53:35.327Z,260
2019-01-06T04:54:35.524Z,260
2019-01-06T04:55:35.261Z,260
2019-01-06T04:56:35.319Z,260
2019-01-06T04:57:35.376Z,260
2019-01-06T04:58:35.319Z,260
2019-01-06T04:59:35.379Z,260
2019-01-06T05:00:35.254Z,260
2019-01-06T05:01:35.315Z,260
2019-01-06T05:02:35.416Z,260
2019-01-06T05:03:35.326Z,260
2019-01-06T05:04:35.311Z,260
2019-01-06T05:05:35.263Z,260
2019-01-06T05:06:35.254Z,260
2019-01-06T05:07:35.562Z,260
2019-01-06T05:08:35.514Z,260
2019-01-06T05:09:35.309Z,260
2019-01-06T05:10:35.372Z,260
2019-01-06T05:11:35.270Z,260
2019-01-06T05:12:35.378Z,260
2019-01-06T05:13:35.347Z,260
2019-01-06T05:14:35.400Z,260
2019-01-06T05:15:35.308Z,260
2019-01-06T05:16:35.368Z,260
2019-01-06T05:17:35.262Z,260
2019-01-06T05:18:35.315Z,260
2019-01-06T05:19:35.351Z,260
2019-01-06T05:20:35.285Z,260
2019-01-06T05:21:35.385Z,260
2019-01-06T05:22:35.245Z,260
2019-01-06T05:23:35.375Z,260
2019-01-06T05:24:35.410Z,260
2019-01-06T05:25:35.329Z,260
2019-01-06T05:26:35.319Z,260
2019-01-06T05:27:35.234Z,260
2019-01-06T05:28:35.287Z,260
2019-01-06T05:29:35.364Z,260
2019-01-06T05:30:35.318Z,260
2019-01-06T05:31:35.845Z,260
2019-01-06T05:32:35.336Z,260.5
2019-01-06T05:33:35.296Z,260.2
2019-01-06T05:34:35.281Z,260.1
2019-01-06T05:35:35.282Z,260.1
2019-01-06T05:36:35.346Z,260
2019-01-06T05:37:35.282Z,260
2019-01-06T05:38:35.309Z,260
2019-01-06T05:39:35.294Z,260
2019-01-06T05:40:35.311Z,260
2019-01-06T05:41:35.370Z,260
2019-01-06T05:42:35.315Z,260
2019-01-06T05:43:35.489Z,260
2019-01-06T05:44:35.235Z,260
2019-01-06T05:45:35.388Z,260
2019-01-06T05:46:35.322Z,260
2019-01-06T05:47:35.285Z,260
2019-01-06T05:48:35.282Z,260
2019-01-06T05:49:35.246Z,260
2019-01-06T05:50:35.437Z,260
2019-01-06T05:51:35.290Z,260
2019-01-06T05:52:45.220Z,260
2019-01-06T05:53:35.306Z,262.7
2019-01-06T05:54:35.335Z,261.2
2019-01-06T05:55:35.213Z,260.6
2019-01-06T05:56:35.293Z,260.3
2019-01-06T05:57:35.288Z,260.1
2019-01-06T05:58:35.372Z,260.1
2019-01-06T05:59:35.282Z,260
2019-01-06T06:00:35.229Z,260
2019-01-06T06:01:35.277Z,260
2019-01-06T06:02:35.277Z,260
2019-01-06T06:03:35.340Z,260
2019-01-06T06:04:35.268Z,260
2019-01-06T06:05:35.233Z,260
2019-01-06T06:06:35.294Z,260
2019-01-06T06:07:35.342Z,260
2019-01-06T06:08:35.326Z,260
2019-01-06T06:09:35.298Z,260
2019-01-06T06:10:35.270Z,260
2019-01-06T06:11:35.225Z,260
2019-01-06T06:12:35.339Z,260
2019-01-06T06:13:35.274Z,260
2019-01-06T06:14:35.348Z,260
2019-01-06T06:15:35.271Z,260
2019-01-06T06:16:35.243Z,260
2019-01-06T06:17:35.261Z,260
2019-01-06T06:18:35.362Z,260
2019-01-06T06:19:35.280Z,260
2019-01-06T06:20:35.341Z,260
2019-01-06T06:21:35.289Z,260
2019-01-06T06:22:35.333Z,260
2019-01-06T06:23:35.259Z,260
2019-01-06T06:24:35.279Z,260
2019-01-06T06:25:35.292Z,260
2019-01-06T06:26:35.316Z,260
2019-01-06T06:27:35.407Z,260
2019-01-06T06:28:35.211Z,260
2019-01-06T06:29:35.268Z,260
2019-01-06T06:30:36.173Z,260
2019-01-06T06:31:35.300Z,260
2019-01-06T06:32:35.317Z,260
2019-01-06T06:33:35.344Z,260
2019-01-06T06:34:35.285Z,260
2019-01-06T06:35:35.262Z,260
2019-01-06T06:36:35.257Z,260
2019-01-06T06:37:35.348Z,260
2019-01-06T06:38:36.310Z,260
2019-01-06T06:39:35.258Z,260
2019-01-06T06:40:35.314Z,260
2019-01-06T06:41:35.244Z,260
2019-01-06T06:42:35.258Z,260
2019-01-06T06:43:35.245Z,260
2019-01-06T06:44:35.281Z,260
2019-01-06T06:45:35.269Z,260
2019-01-06T06:46:35.263Z,260
2019-01-06T06:47:35.268Z,260
2019-01-06T06:48:35.345Z,260
2019-01-06T06:49:35.291Z,260
2019-01-06T06:50:35.264Z,260
2019-01-06T06:51:35.356Z,260
2019-01-06T06:52:35.253Z,260.5
2019-01-06T06:53:35.258Z,260.2
2019-01-06T06:54:35.284Z,260.1
2019-01-06T06:55:35.222Z,260.1
2019-01-06T06:56:35.265Z,260
2019-01-06T06:57:35.262Z,260
2019-01-06T06:58:35.257Z,260
2019-01-06T06:59:35.320Z,260
2019-01-06T07:00:35.214Z,260
2019-01-06T07:01:35.284Z,260
2019-01-06T07:02:35.301Z,260
2019-01-06T07:03:35.255Z,260
2019-01-06T07:04:35.255Z,260
2019-01-06T07:05:35.209Z,260
2019-01-06T07:06:35.324Z,260
2019-01-06T07:07:35.245Z,260
2019-01-06T07:08:35.239Z,260
2019-01-06T07:09:35.252Z,260
2019-01-06T07:10:35.261Z,260
2019-01-06T07:11:35.280Z,260
2019-01-06T07:12:35.253Z,260
2019-01-06T07:13:35.308Z,260
2019-01-06T07:14:35.253Z,260
2019-01-06T07:15:35.252Z,260
2019-01-06T07:16:35.288Z,260
2019-01-06T07:17:35.330Z,260
2019-01-06T07:18:35.240Z,260
2019-01-06T07:19:35.261Z,260
2019-01-06T07:20:35.257Z,260
2019-01-06T07:21:35.363Z,260
2019-01-06T07:22:35.171Z,260
2019-01-06T07:23:35.248Z,260
2019-01-06T07:24:35.287Z,260
2019-01-06T07:25:35.267Z,241.9
2019-01-06T07:26:35.342Z,120.5
2019-01-06T07:27:35.180Z,107.2
2019-01-06T07:28:35.277Z,104.3
2019-01-06T07:29:35.224Z,103.3
2019-01-06T07:30:35.226Z,102.9
2019-01-06T07:31:35.226Z,102.7
2019-01-06T07:32:35.261Z,102.6
2019-01-06T07:33:35.224Z,102.5
2019-01-06T07:34:35.216Z,102.5
2019-01-06T07:35:35.240Z,102.5
2019-01-06T07:36:35.222Z,102.5
2019-01-06T07:37:35.286Z,102.5
2019-01-06T07:38:35.229Z,102.5
2019-01-06T07:39:35.281Z,102.5
2019-01-06T07:40:35.291Z,102.5
2019-01-06T07:41:35.214Z,102.5
2019-01-06T07:42:35.234Z,102.5
2019-01-06T07:43:35.203Z,102.5
2019-01-06T07:44:35.233Z,102.5
2019-01-06T07:45:35.220Z,102.5
2019-01-06T07:46:35.310Z,102.5
2019-01-06T07:47:35.207Z,102.5
2019-01-06T07:48:35.310Z,102.5
2019-01-06T07:49:35.160Z,102.5
2019-01-06T07:50:35.223Z,102.5
2019-01-06T07:51:35.219Z,102.5
2019-01-06T07:52:35.223Z,102.5
2019-01-06T07:53:35.286Z,102.5
2019-01-06T07:54:35.180Z,102.5
2019-01-06T07:55:35.256Z,102.5
2019-01-06T07:56:35.294Z,102.5
2019-01-06T07:57:35.297Z,102.5
2019-01-06T07:58:35.213Z,102.5
2019-01-06T07:59:35.249Z,102.5
2019-01-06T08:00:35.174Z,102.5
2019-01-06T08:01:35.316Z,102.5
2019-01-06T08:02:35.233Z,102.5
2019-01-06T08:03:35.197Z,102.5
2019-01-06T08:04:35.200Z,102.5
2019-01-06T08:05:35.164Z,102.5
2019-01-06T08:06:35.222Z,102.5
2019-01-06T08:07:35.294Z,102.5
2019-01-06T08:08:35.202Z,102.5
2019-01-06T08:09:35.284Z,102.5
2019-01-06T08:10:35.388Z,102.5
2019-01-06T08:11:35.178Z,102.5
2019-01-06T08:12:35.224Z,102.5
2019-01-06T08:13:35.282Z,102.5
2019-01-06T08:14:35.238Z,102.5
2019-01-06T08:15:35.218Z,102.5
2019-01-06T08:16:35.274Z,102.5
2019-01-06T08:17:35.211Z,102.5
2019-01-06T08:18:35.226Z,102.5
2019-01-06T08:19:35.216Z,102.5
2019-01-06T08:20:36.443Z,102.5
2019-01-06T08:21:35.280Z,102.5
2019-01-06T08:22:35.143Z,102.5
2019-01-06T08:23:35.227Z,102.5
2019-01-06T08:24:35.266Z,102.5
2019-01-06T08:25:35.209Z,102.5
2019-01-06T08:26:35.299Z,102.5
2019-01-06T08:27:35.126Z,102.5
2019-01-06T08:28:35.196Z,102.5
2019-01-06T08:29:35.183Z,102.5
2019-01-06T08:30:35.266Z,102.5
2019-01-06T08:31:35.257Z,102.5
2019-01-06T08:32:35.260Z,102.5
2019-01-06T08:33:35.210Z,102.5
2019-01-06T08:34:35.250Z,102.5
2019-01-06T08:35:35.201Z,102.5
2019-01-06T08:36:35.191Z,102.5
2019-01-06T08:37:35.318Z,102.5
2019-01-06T08:38:35.162Z,102.5
2019-01-06T08:39:35.227Z,102.5
2019-01-06T08:40:35.207Z,102.5
2019-01-06T08:41:35.238Z,102.5
2019-01-06T08:42:35.415Z,102.5
2019-01-06T08:43:36.508Z,102.5
2019-01-06T08:44:35.150Z,102.5
2019-01-06T08:45:36.729Z,102.5
2019-01-06T08:46:35.202Z,102.5
2019-01-06T08:47:35.260Z,102.5
2019-01-06T08:48:35.344Z,102.5
2019-01-06T08:49:35.147Z,102.5
2019-01-06T08:50:35.197Z,102.5
2019-01-06T08:51:36.899Z,102.5
2019-01-06T08:52:38.796Z,102.5
2019-01-06T08:53:37.434Z,102.5
2019-01-06T08:54:35.970Z,102.5
2019-01-06T08:55:35.528Z,102.5
2019-01-06T08:56:35.994Z,102.5
2019-01-06T08:57:38.310Z,102.5
2019-01-06T08:58:37.364Z,102.5
2019-01-06T08:59:35.567Z,102.5
2019-01-06T09:00:36.552Z,102.5
2019-01-06T09:01:35.429Z,102.5
2019-01-06T09:02:35.776Z,102.5
2019-01-06T09:03:36.467Z,102.5
2019-01-06T09:04:35.134Z,102.5
2019-01-06T09:05:35.260Z,102.5
2019-01-06T09:06:35.132Z,102.5
2019-01-06T09:07:35.182Z,102.5
2019-01-06T09:08:35.119Z,102.5
2019-01-06T09:09:35.571Z,102.5
2019-01-06T09:10:35.445Z,102.5
2019-01-06T09:11:35.489Z,102.5
2019-01-06T09:12:45.341Z,102.5
2019-01-06T09:13:35.226Z,102.5
2019-01-06T09:14:38.262Z,102.5
2019-01-06T09:15:35.298Z,102.5
2019-01-06T09:16:38.162Z,102.5
2019-01-06T09:17:35.163Z,102.5
2019-01-06T09:18:35.126Z,102.5
2019-01-06T09:19:35.117Z,102.5
2019-01-06T09:20:35.345Z,102.5
2019-01-06T09:21:35.178Z,102.5
2019-01-06T09:22:35.170Z,102.5
2019-01-06T09:23:35.230Z,102.5
2019-01-06T09:24:35.229Z,102.5
2019-01-06T09:25:43.189Z,102.5
2019-01-06T09:26:35.170Z,102.5
2019-01-06T09:27:35.146Z,102.5
2019-01-06T09:28:35.171Z,102.5
2019-01-06T09:29:36.047Z,102.5
2019-01-06T09:30:35.173Z,102.5
2019-01-06T09:31:35.268Z,102.5
2019-01-06T09:32:35.200Z,102.5
2019-01-06T09:33:35.095Z,102.5
2019-01-06T09:34:35.191Z,102.5
2019-01-06T09:35:35.186Z,102.5
2019-01-06T09:36:35.272Z,102.5
2019-01-06T09:37:35.223Z,102.5
2019-01-06T09:38:35.154Z,102.5
2019-01-06T09:39:35.178Z,102.5
2019-01-06T09:40:35.296Z,102.5
2019-01-06T09:41:35.202Z,102.5
2019-01-06T09:42:35.253Z,102.5
2019-01-06T09:43:35.128Z,102.5
2019-01-06T09:44:35.128Z,102.5
2019-01-06T09:45:35.263Z,102.5
2019-01-06T09:46:35.172Z,102.5
2019-01-06T09:47:35.317Z,102.5
2019-01-06T09:48:35.158Z,102.5
2019-01-06T09:49:35.149Z,102.5
2019-01-06T09:50:35.204Z,102.5
2019-01-06T09:51:37.881Z,102.5
2019-01-06T09:52:35.282Z,102.5
2019-01-06T09:53:35.292Z,102.5
2019-01-06T09:54:35.138Z,102.5
2019-01-06T09:55:35.174Z,102.5
2019-01-06T09:56:35.214Z,102.5
2019-01-06T09:57:35.149Z,102.5
2019-01-06T09:58:35.190Z,102.5
2019-01-06T09:59:35.248Z,102.5
2019-01-06T10:00:35.118Z,102.5
2019-01-06T10:01:35.148Z,102.5
2019-01-06T10:02:35.302Z,102.5
2019-01-06T10:03:39.790Z,102.5
2019-01-06T10:04:42.582Z,102.5
2019-01-06T10:05:37.277Z,102.5
2019-01-06T10:06:38.880Z,102.5
2019-01-06T10:07:39.470Z,102.5
2019-01-06T10:08:38.892Z,102.5
2019-01-06T10:09:40.591Z,102.5
2019-01-06T10:10:39.393Z,102.5
2019-01-06T10:11:38.547Z,102.5
2019-01-06T10:12:35.158Z,102.5
2019-01-06T10:13:35.210Z,102.5
2019-01-06T10:14:35.232Z,102.5
2019-01-06T10:15:35.160Z,102.5
2019-01-06T10:16:35.095Z,102.5
2019-01-06T10:17:35.141Z,102.5
2019-01-06T10:18:35.151Z,102.5
2019-01-06T10:19:35.281Z,102.5
2019-01-06T10:20:35.131Z,102.5
2019-01-06T10:21:35.751Z,102.5
2019-01-06T10:22:35.103Z,102.5
2019-01-06T10:23:35.139Z,102.5
2019-01-06T10:24:35.236Z,102.5
2019-01-06T10:25:35.299Z,102.5
2019-01-06T10:26:35.179Z,102.5
2019-01-06T10:27:35.115Z,102.5
2019-01-06T10:28:35.198Z,102.5
2019-01-06T10:29:36.456Z,102.5
2019-01-06T10:30:35.245Z,102.5
2019-01-06T10:31:35.136Z,102.5
2019-01-06T10:32:35.129Z,102.5
2019-01-06T10:33:36.393Z,102.5
2019-01-06T10:34:35.165Z,102.5
2019-01-06T10:35:36.729Z,102.5
2019-01-06T10:36:35.136Z,102.5
2019-01-06T10:37:36.474Z,102.5
2019-01-06T10:38:35.092Z,102.5
2019-01-06T10:39:37.302Z,102.5
2019-01-06T10:40:35.835Z,102.5
2019-01-06T10:41:35.255Z,102.5
2019-01-06T10:42:35.213Z,102.5
2019-01-06T10:43:38.102Z,102.5
2019-01-06T10:44:35.084Z,102.5
2019-01-06T10:45:35.127Z,102.5
2019-01-06T10:46:35.174Z,102.5
2019-01-06T10:47:35.214Z,102.5
2019-01-06T10:48:35.149Z,102.5
2019-01-06T10:49:35.076Z,102.5
2019-01-06T10:50:35.163Z,102.5
2019-01-06T10:51:35.208Z,102.5
2019-01-06T10:52:35.148Z,102.5
2019-01-06T10:53:35.243Z,102.5
2019-01-06T10:54:35.084Z,102.5
2019-01-06T10:55:35.157Z,102.5
2019-01-06T10:56:35.134Z,102.5
2019-01-06T10:57:35.315Z,102.5
2019-01-06T10:58:35.133Z,102.5
2019-01-06T10:59:35.129Z,102.5
2019-01-06T11:00:35.096Z,104.1
2019-01-06T11:01:35.143Z,115.3
2019-01-06T11:02:35.222Z,120.5
2019-01-06T11:03:35.144Z,122.9
2019-01-06T11:04:36.044Z,124
2019-01-06T11:05:35.055Z,124.6
2019-01-06T11:06:35.944Z,124.8
2019-01-06T11:07:35.188Z,124.9
2019-01-06T11:08:35.214Z,125
2019-01-06T11:09:35.146Z,125
2019-01-06T11:10:35.123Z,125
2019-01-06T11:11:35.043Z,125
2019-01-06T11:12:35.135Z,125
2019-01-06T11:13:35.419Z,125
2019-01-06T11:14:35.124Z,125
2019-01-06T11:15:35.107Z,125
2019-01-06T11:16:35.073Z,125
2019-01-06T11:17:35.142Z,125
2019-01-06T11:18:35.208Z,125
2019-01-06T11:19:35.117Z,125
2019-01-06T11:20:35.211Z,125
2019-01-06T11:21:35.174Z,125
2019-01-06T11:22:35.065Z,125
2019-01-06T11:23:35.128Z,125
2019-01-06T11:24:35.256Z,125
2019-01-06T11:25:35.186Z,125
2019-01-06T11:26:35.125Z,125
2019-01-06T11:27:35.068Z,125
2019-01-06T11:28:35.149Z,125
2019-01-06T11:29:35.155Z,125
2019-01-06T11:30:35.193Z,125
2019-01-06T11:31:35.238Z,125
2019-01-06T11:32:35.116Z,125
2019-01-06T11:33:35.093Z,125
2019-01-06T11:34:35.182Z,125
2019-01-06T11:35:35.132Z,125
2019-01-06T11:36:35.172Z,125
2019-01-06T11:37:35.111Z,125
2019-01-06T11:38:35.046Z,125
2019-01-06T11:39:35.192Z,125
2019-01-06T11:40:35.268Z,125
2019-01-06T11:41:35.115Z,125
2019-01-06T11:42:35.212Z,125
2019-01-06T11:43:35.055Z,125
2019-01-06T11:44:35.099Z,125
2019-01-06T11:45:35.157Z,125
2019-01-06T11:46:35.226Z,125
2019-01-06T11:47:35.123Z,125
2019-01-06T11:48:35.110Z,125
2019-01-06T11:49:35.067Z,125
2019-01-06T11:50:35.178Z,125
2019-01-06T11:51:35.188Z,125
2019-01-06T11:52:35.116Z,125
2019-01-06T11:53:35.137Z,125
2019-01-06T11:54:35.071Z,125
2019-01-06T11:55:35.112Z,125
2019-01-06T11:56:35.125Z,125
2019-01-06T11:57:35.110Z,125
2019-01-06T11:58:35.111Z,125
2019-01-06T11:59:35.099Z,125
2019-01-06T12:00:35.083Z,125
2019-01-06T12:01:35.114Z,125
2019-01-06T12:02:42.428Z,125
2019-01-06T12:03:35.415Z,125
2019-01-06T12:04:35.122Z,125
2019-01-06T12:05:35.170Z,125
2019-01-06T12:06:35.141Z,125
2019-01-06T12:07:37.213Z,125
2019-01-06T12:08:43.321Z,125
2019-01-06T12:09:35.183Z,125
2019-01-06T12:10:35.174Z,125
2019-01-06T12:11:35.032Z,125
2019-01-06T12:12:35.123Z,125
2019-01-06T12:13:35.095Z,125
2019-01-06T12:14:35.114Z,125
2019-01-06T12:15:35.183Z,125
2019-01-06T12:16:35.048Z,125
2019-01-06T12:17:35.129Z,125
2019-01-06T12:18:35.117Z,125
2019-01-06T12:19:37.339Z,125
2019-01-06T12:20:35.165Z,125
2019-01-06T12:21:35.102Z,125
2019-01-06T12:22:35.062Z,125
2019-01-06T12:23:35.189Z,125
2019-01-06T12:24:35.078Z,125
2019-01-06T12:25:35.107Z,125
2019-01-06T12:26:35.091Z,125
2019-01-06T12:27:35.094Z,125
2019-01-06T12:28:35.083Z,125
2019-01-06T12:29:35.103Z,125
2019-01-06T12:30:35.098Z,125
2019-01-06T12:31:35.085Z,125
2019-01-06T12:32:35.116Z,125
2019-01-06T12:33:35.168Z,125
2019-01-06T12:34:35.154Z,125
2019-01-06T12:35:36.437Z,121.5
2019-01-06T12:36:35.180Z,11.2
2019-01-06T12:37:38.176Z,319.4
2019-01-06T12:38:35.120Z,309.9
2019-01-06T12:39:35.107Z,307
2019-01-06T12:40:35.113Z,305.9
2019-01-06T12:41:35.117Z,305.4
2019-01-06T12:42:35.089Z,305.2
2019-01-06T12:43:35.084Z,305.1
2019-01-06T12:44:35.026Z,305
2019-01-06T12:45:35.089Z,305
2019-01-06T12:46:35.171Z,305
2019-01-06T12:47:35.225Z,305
2019-01-06T12:48:35.079Z,305
2019-01-06T12:49:35.038Z,305
2019-01-06T12:50:35.118Z,305
2019-01-06T12:51:43.198Z,305
2019-01-06T12:52:35.101Z,305
2019-01-06T12:53:43.446Z,305
2019-01-06T12:54:35.134Z,305
2019-01-06T12:55:35.087Z,305
2019-01-06T12:56:35.125Z,305
2019-01-06T12:57:35.163Z,305
2019-01-06T12:58:35.071Z,305
2019-01-06T12:59:35.081Z,305
2019-01-06T13:00:35.087Z,305
2019-01-06T13:01:35.149Z,305
2019-01-06T13:02:35.100Z,305
2019-01-06T13:03:35.110Z,305
2019-01-06T13:04:35.121Z,304.1
2019-01-06T13:05:35.031Z,304.6
2019-01-06T13:06:35.159Z,304.8
2019-01-06T13:07:35.147Z,304.9
2019-01-06T13:08:35.095Z,305
2019-01-06T13:09:35.098Z,305
2019-01-06T13:10:35.104Z,305
2019-01-06T13:11:35.053Z,305
2019-01-06T13:12:35.032Z,305
2019-01-06T13:13:40.538Z,305
2019-01-06T13:14:35.045Z,304.5
2019-01-06T13:15:35.148Z,304.8
2019-01-06T13:16:35.017Z,304.9
2019-01-06T13:17:35.097Z,305
2019-01-06T13:18:35.012Z,305
2019-01-06T13:19:35.090Z,305
2019-01-06T13:20:35.132Z,305
2019-01-06T13:21:35.046Z,305
2019-01-06T13:22:35.089Z,305
2019-01-06T13:23:35.162Z,305
2019-01-06T13:24:39.358Z,305
2019-01-06T13:25:35.028Z,304.7
2019-01-06T13:26:35.147Z,304.9
2019-01-06T13:27:34.991Z,304.9